Accueil
METAR-TAF:

METAR-TAF

Aéroports :

Aéroport de Bergerac-Dordogne-Périgord

Bergerac, France

latitude: 44-49N, longitude: 000-31E, altitude: 51 m

Observation

Le bulletin a été fait il y a 40 minutes, à 20:00 UTC
Vent 5 kt de nord
Température 9°C
Humidité 53%
Pression 1027 hPa
Visibilité 10 km ou plus
pas de nuages en-dessous de 1500 mètres et pas de cumulonimbus.

METAR: LFBE 252000Z AUTO 01005KT CAVOK 09/00 Q1027 NOSIG

Heure: 21:40 (20:40 UTC)

Prévision

Le bulletin a été fait il y a 3 heures et 40 minutes, à 17:00 UTC
Prévision valable du 25 à 18 UTC au 26 à 18 UTC
Vent 10 kt de nord/nord-est
Visibilité 10 km ou plus
pas de nuages en-dessous de 1500 mètres et pas de cumulonimbus.
Temporairement
du 26 à 14 UTC au 26 à 18 UTC
Vent 10 kt de nord/nord-est avec des rafales jusqu'à 20 kt

TAF: LFBE 251700Z 2518/2618 02010KT CAVOK TEMPO 2614/2618 02010G20KT

Observations et prévisions météorologiques de plus de 4000 aéroports (messages METAR et TAF).

Les stations disponibles sont représentées par des disques jaunes et rouges sur la carte.

Passer la souris dessus pour voir le nom de la station.

Cliquer dessus pour voir les observations et prévisions météorologiques.

Pour changer de carte: cliquez sur les boutons verts avec une croix noire pour zoomer, sur le bouton vert avec un tiret pour effectuer un zoom arrière, ou sur les flèches vertes pour les cartes adjacentes.


METAR-TAF: